Time;durP1;ratioP1;P1;durP2;ratioP2;P2;SDS_P1;SDS_P2;PMS_P1;PMS_P2;Temp;Humidity;BMP_temperature;BMP_pressure;BME280_temperature;BME280_humidity;BME280_pressure;Samples;Min_cycle;Max_cycle;Signal;HPM_P1;HPM_P2
2022/10/02 00:02:00;;;;;;;10.03;8.60;;;;;;;20.17;100.00;98862.91;4956391;28;20223;-67
2022/10/02 00:04:34;;;;;;;9.93;8.97;;;;;;;20.17;100.00;98871.81;4962708;28;20183;-66
2022/10/02 00:07:05;;;;;;;9.67;8.70;;;;;;;20.02;100.00;98895.28;4976601;28;20254;-66
2022/10/02 00:09:38;;;;;;;10.30;9.30;;;;;;;20.03;100.00;98904.97;4976308;28;20195;-66
2022/10/02 00:12:07;;;;;;;9.80;9.00;;;;;;;20.08;100.00;98904.97;4976039;28;20684;-66
2022/10/02 00:14:38;;;;;;;9.03;8.43;;;;;;;20.08;100.00;98924.66;4976370;28;20199;-66
2022/10/02 00:17:06;;;;;;;9.40;8.13;;;;;;;20.05;100.00;98935.19;4976085;28;20249;-67
2022/10/02 00:19:34;;;;;;;8.77;8.10;;;;;;;19.95;100.00;98941.38;4976204;28;20254;-66
2022/10/02 00:22:11;;;;;;;9.23;7.70;;;;;;;19.63;100.00;98953.47;4975282;28;20230;-66
2022/10/02 00:24:43;;;;;;;8.30;7.70;;;;;;;19.36;100.00;98958.28;4975383;28;20193;-66
2022/10/02 00:27:21;;;;;;;8.57;7.97;;;;;;;19.26;100.00;98963.63;4975348;28;20215;-67
2022/10/02 00:29:51;;;;;;;8.80;8.13;;;;;;;19.13;100.00;98945.25;4975257;28;20187;-67
2022/10/02 00:32:29;;;;;;;11.90;8.03;;;;;;;19.00;100.00;98937.66;4975617;28;20205;-66
2022/10/02 00:35:27;;;;;;;8.07;7.37;;;;;;;18.98;100.00;98937.91;4975928;28;20187;-66
2022/10/02 00:38:01;;;;;;;9.27;8.13;;;;;;;18.93;100.00;98934.38;4975532;28;20254;-67
2022/10/02 00:40:42;;;;;;;7.90;7.20;;;;;;;18.81;100.00;98928.41;4976016;28;20322;-67
2022/10/02 00:43:22;;;;;;;8.10;7.50;;;;;;;18.81;100.00;98939.19;4974086;28;20194;-67
2022/10/02 00:46:05;;;;;;;8.30;7.63;;;;;;;18.76;100.00;98923.03;4974822;28;20659;-68
2022/10/02 00:49:07;;;;;;;7.67;7.17;;;;;;;18.95;100.00;98908.81;4974824;28;20186;-68
2022/10/02 00:51:53;;;;;;;7.20;6.57;;;;;;;19.11;100.00;98910.50;4952187;28;20254;-66
2022/10/02 00:54:31;;;;;;;6.37;5.93;;;;;;;19.28;100.00;98918.41;4975723;28;20271;-66
2022/10/02 00:57:05;;;;;;;6.60;5.93;;;;;;;19.39;100.00;98915.44;4975759;28;20258;-66
2022/10/02 00:59:51;;;;;;;6.53;6.00;;;;;;;19.52;100.00;98914.13;4975548;28;20241;-66
2022/10/02 01:02:52;;;;;;;6.30;5.80;;;;;;;19.63;100.00;98921.13;4975138;28;20706;-66
2022/10/02 01:05:20;;;;;;;6.53;6.07;;;;;;;19.70;100.00;98935.16;4976028;28;20245;-66
2022/10/02 01:07:51;;;;;;;6.17;5.77;;;;;;;19.75;100.00;98932.47;4975358;28;20199;-66
2022/10/02 01:10:21;;;;;;;6.77;6.20;;;;;;;19.72;100.00;98924.91;4975327;28;20279;-66
2022/10/02 01:12:48;;;;;;;6.40;5.90;;;;;;;19.74;100.00;98936.25;4975176;28;20241;-66
2022/10/02 01:15:17;;;;;;;5.83;5.43;;;;;;;19.79;100.00;98937.06;4975395;28;20258;-66
2022/10/02 01:17:45;;;;;;;6.37;5.87;;;;;;;19.79;100.00;98957.81;4974983;28;20660;-66
2022/10/02 01:20:16;;;;;;;9.50;5.90;;;;;;;19.72;100.00;98949.16;4974816;28;20273;-66
2022/10/02 01:22:52;;;;;;;6.30;5.10;;;;;;;19.74;99.92;98949.72;4974665;28;20223;-66
2022/10/02 01:25:20;;;;;;;6.07;5.60;;;;;;;19.85;99.97;98944.06;4974831;28;20662;-66
2022/10/02 01:27:47;;;;;;;5.47;4.90;;;;;;;19.94;99.89;98941.66;4974686;28;20196;-66
2022/10/02 01:30:17;;;;;;;6.33;5.83;;;;;;;19.92;100.00;98933.84;4975150;28;20201;-66
2022/10/02 01:32:49;;;;;;;6.10;5.50;;;;;;;19.99;100.00;98930.84;4974919;28;20724;-66
2022/10/02 01:35:18;;;;;;;6.53;6.03;;;;;;;20.00;100.00;98932.47;4974464;28;20192;-66
2022/10/02 01:37:45;;;;;;;7.93;5.17;;;;;;;19.92;100.00;98919.53;4974672;28;20203;-66
2022/10/02 01:40:26;;;;;;;6.20;5.63;;;;;;;19.73;100.00;98913.06;4974958;28;20199;-66
2022/10/02 01:42:55;;;;;;;7.73;5.40;;;;;;;19.61;100.00;98907.94;4974958;28;20191;-66
2022/10/02 01:45:37;;;;;;;4.93;4.50;;;;;;;19.41;100.00;98907.94;4974349;28;20258;-65
2022/10/02 01:48:13;;;;;;;5.90;5.33;;;;;;;19.48;100.00;98915.75;4974893;28;20254;-65
2022/10/02 01:50:53;;;;;;;4.80;4.50;;;;;;;19.37;100.00;98911.41;4974336;28;20242;-66
2022/10/02 01:53:26;;;;;;;4.83;4.20;;;;;;;19.42;100.00;98911.41;4973127;28;20382;-66
2022/10/02 01:56:03;;;;;;;9.10;4.60;;;;;;;19.40;100.00;98908.19;4974860;28;20194;-66
2022/10/02 01:58:39;;;;;;;4.23;3.93;;;;;;;19.34;100.00;98920.00;4974521;28;20223;-65
2022/10/02 02:01:17;;;;;;;4.37;4.07;;;;;;;19.45;100.00;98924.34;4974693;28;20217;-65
2022/10/02 02:03:53;;;;;;;4.50;4.10;;;;;;;19.46;100.00;98912.50;4974059;28;20241;-66
2022/10/02 02:06:28;;;;;;;5.70;3.60;;;;;;;19.48;100.00;98918.44;4974139;28;20194;-67
2022/10/02 02:09:05;;;;;;;3.80;3.60;;;;;;;19.44;100.00;98917.34;4973744;28;20621;-67
2022/10/02 02:11:36;;;;;;;4.27;3.97;;;;;;;19.41;100.00;98923.28;4974383;28;20244;-66
2022/10/02 02:14:07;;;;;;;4.10;3.80;;;;;;;19.40;100.00;98937.81;4974103;28;20254;-67
2022/10/02 02:16:40;;;;;;;4.57;4.07;;;;;;;19.32;100.00;98930.25;4974043;28;20730;-66
2022/10/02 02:19:12;;;;;;;5.47;3.70;;;;;;;19.27;100.00;98938.31;4973903;28;20194;-66
2022/10/02 02:21:42;;;;;;;4.67;3.70;;;;;;;19.27;100.00;98949.06;4973987;28;20266;-66
2022/10/02 02:24:14;;;;;;;5.43;4.07;;;;;;;19.25;100.00;98948.53;4974196;28;20200;-66
2022/10/02 02:26:45;;;;;;;5.10;3.77;;;;;;;19.24;100.00;98947.72;4973820;28;20348;-67
2022/10/02 02:29:15;;;;;;;4.37;3.90;;;;;;;19.20;100.00;98961.97;4973789;28;20193;-66
2022/10/02 02:31:46;;;;;;;4.27;3.77;;;;;;;19.26;100.00;98963.63;4974107;28;20275;-66
2022/10/02 02:34:17;;;;;;;8.80;3.63;;;;;;;19.26;100.00;98974.38;4973967;28;20278;-66
2022/10/02 02:36:47;;;;;;;3.80;3.50;;;;;;;19.27;100.00;98976.81;4974233;28;20204;-66
2022/10/02 02:39:17;;;;;;;3.90;3.60;;;;;;;19.27;100.00;98976.00;4974068;28;20622;-66
2022/10/02 02:41:49;;;;;;;4.40;3.43;;;;;;;19.26;100.00;98974.38;4973648;28;20258;-66
2022/10/02 02:44:22;;;;;;;3.77;3.47;;;;;;;19.28;100.00;98981.13;4973924;28;20192;-67
2022/10/02 02:47:05;;;;;;;3.80;3.20;;;;;;;19.27;100.00;98984.09;4973461;28;20196;-66
2022/10/02 02:49:39;;;;;;;4.03;3.27;;;;;;;19.30;100.00;98991.63;4973379;28;20191;-66
2022/10/02 02:52:11;;;;;;;3.93;3.37;;;;;;;19.30;100.00;98997.03;4972952;28;20239;-67
2022/10/02 02:54:43;;;;;;;3.20;2.93;;;;;;;19.39;100.00;99011.59;4973797;28;20183;-66
2022/10/02 02:57:15;;;;;;;2.97;2.67;;;;;;;19.34;100.00;99019.66;4973433;28;20546;-66
2022/10/02 02:59:45;;;;;;;6.77;3.07;;;;;;;19.28;100.00;99018.84;4974238;28;20190;-66
2022/10/02 03:02:11;;;;;;;2.70;2.50;;;;;;;19.26;100.00;99025.56;4973823;28;20224;-66
2022/10/02 03:04:38;;;;;;;5.10;2.73;;;;;;;19.21;100.00;99041.66;4973422;28;20188;-66
2022/10/02 03:07:06;;;;;;;3.00;2.80;;;;;;;19.20;100.00;99040.06;4972710;28;20193;-65
2022/10/02 03:09:33;;;;;;;3.57;3.07;;;;;;;19.26;100.00;99050.63;4973064;28;20197;-65
2022/10/02 03:12:13;;;;;;;3.10;2.90;;;;;;;19.01;100.00;99052.34;4973262;28;20254;-66
2022/10/02 03:15:03;;;;;;;2.87;2.77;;;;;;;18.94;100.00;99070.59;4973536;28;20191;-66
2022/10/02 03:17:47;;;;;;;3.90;3.57;;;;;;;18.81;100.00;99068.34;4972973;28;20203;-66
2022/10/02 03:20:20;;;;;;;3.57;3.27;;;;;;;18.67;100.00;99065.28;4973448;28;20187;-66
2022/10/02 03:22:56;;;;;;;3.90;3.70;;;;;;;18.59;100.00;99075.75;4972780;28;20220;-66
2022/10/02 03:25:30;;;;;;;5.43;3.47;;;;;;;18.65;100.00;99066.63;4973649;28;20250;-66
2022/10/02 03:28:04;;;;;;;3.57;3.27;;;;;;;18.65;100.00;99069.31;4974024;28;20226;-66
2022/10/02 03:30:32;;;;;;;4.27;3.40;;;;;;;18.61;100.00;99062.81;4973451;28;20182;-66
2022/10/02 03:33:00;;;;;;;5.50;3.50;;;;;;;18.51;100.00;99074.34;4973084;28;20262;-65
2022/10/02 03:35:28;;;;;;;3.43;3.23;;;;;;;18.58;100.00;99085.69;4973102;28;20195;-66
2022/10/02 03:38:00;;;;;;;4.30;3.77;;;;;;;18.61;100.00;99095.09;4974159;28;20202;-66
2022/10/02 03:40:27;;;;;;;2.93;2.70;;;;;;;18.67;100.00;99099.47;4973336;28;20192;-66
2022/10/02 03:42:57;;;;;;;3.23;2.93;;;;;;;18.60;100.00;99104.25;4972554;28;20247;-66
2022/10/02 03:45:25;;;;;;;3.27;3.07;;;;;;;18.69;100.00;99103.53;4972801;28;20204;-66
2022/10/02 03:47:51;;;;;;;3.23;3.07;;;;;;;18.70;100.00;99110.53;4973475;28;20257;-66
2022/10/02 03:50:18;;;;;;;3.63;2.73;;;;;;;18.73;100.00;99117.25;4972607;28;20254;-66
2022/10/02 03:52:46;;;;;;;4.00;2.83;;;;;;;18.69;100.00;99119.69;4972803;28;20232;-67
2022/10/02 03:55:28;;;;;;;3.23;2.93;;;;;;;18.80;100.00;99120.56;4972921;28;20195;-66
2022/10/02 03:57:56;;;;;;;2.60;2.50;;;;;;;18.77;100.00;99121.06;4972847;28;20247;-66
2022/10/02 04:00:29;;;;;;;3.27;2.57;;;;;;;18.80;100.00;99107.09;4972556;28;20195;-66
2022/10/02 04:02:58;;;;;;;3.17;2.97;;;;;;;18.75;100.00;99101.69;4972670;28;20271;-66
2022/10/02 04:05:28;;;;;;;2.90;2.70;;;;;;;18.70;100.00;99107.03;4972597;28;20196;-67
2022/10/02 04:08:00;;;;;;;2.77;2.53;;;;;;;18.69;100.00;99125.06;4972518;28;20231;-67
2022/10/02 04:10:31;;;;;;;2.90;2.80;;;;;;;18.64;100.00;99110.75;4972468;28;20189;-67
2022/10/02 04:13:05;;;;;;;2.50;2.40;;;;;;;18.63;100.00;99119.88;4972828;28;20204;-66
2022/10/02 04:15:45;;;;;;;2.47;2.37;;;;;;;18.60;100.00;99126.59;4972908;28;20247;-67
2022/10/02 04:18:21;;;;;;;2.00;1.90;;;;;;;18.62;99.13;99126.34;4973030;28;20582;-66
2022/10/02 04:20:52;;;;;;;2.87;1.93;;;;;;;18.54;97.65;99133.00;4976261;28;20726;-66
2022/10/02 04:23:26;;;;;;;1.83;1.80;;;;;;;18.57;95.93;99132.47;4976562;28;20397;-66
2022/10/02 04:25:59;;;;;;;1.80;1.70;;;;;;;18.56;93.79;99141.63;4975989;28;20242;-66
2022/10/02 04:28:34;;;;;;;2.20;1.30;;;;;;;18.51;91.92;99148.84;4976434;28;20187;-66
2022/10/02 04:31:05;;;;;;;4.57;1.60;;;;;;;18.47;90.65;99145.84;4975871;28;20188;-66
2022/10/02 04:33:32;;;;;;;2.30;1.30;;;;;;;18.48;88.10;99154.72;4976222;28;20279;-66
2022/10/02 04:36:11;;;;;;;2.57;1.27;;;;;;;18.46;86.63;99168.41;4975868;28;20204;-66
2022/10/02 04:38:53;;;;;;;3.67;1.20;;;;;;;18.56;85.31;99156.94;4976142;28;20196;-66
2022/10/02 04:41:39;;;;;;;2.73;1.07;;;;;;;18.44;85.55;99164.38;4975663;28;20198;-66
2022/10/02 04:44:20;;;;;;;1.63;1.53;;;;;;;18.40;86.15;99152.50;4975321;28;20739;-65
2022/10/02 04:47:03;;;;;;;1.50;1.40;;;;;;;18.40;86.33;99168.63;4975601;28;20187;-65
2022/10/02 04:49:44;;;;;;;2.60;1.40;;;;;;;18.33;85.46;99176.06;4975118;28;20192;-65
2022/10/02 04:52:32;;;;;;;2.47;2.00;;;;;;;18.33;85.62;99182.25;4974930;28;20235;-65
2022/10/02 04:55:21;;;;;;;2.37;2.27;;;;;;;18.71;83.55;99187.47;4975577;28;20276;-63
2022/10/02 04:58:17;;;;;;;5.80;2.30;;;;;;;19.10;82.30;99188.06;4975667;28;20188;-65
2022/10/02 05:00:49;;;;;;;2.47;2.37;;;;;;;19.49;80.37;99189.47;4975931;28;20551;-64
2022/10/02 05:03:32;;;;;;;9.50;2.03;;;;;;;19.78;78.08;99205.00;4975464;28;20281;-66
2022/10/02 05:06:17;;;;;;;3.37;2.40;;;;;;;20.01;76.46;99209.13;4975560;28;20195;-65
2022/10/02 05:09:07;;;;;;;2.90;2.70;;;;;;;20.28;75.44;99212.47;4975267;28;20183;-65
2022/10/02 05:11:49;;;;;;;6.83;2.50;;;;;;;20.56;74.44;99222.81;4974826;28;20241;-67
2022/10/02 05:14:32;;;;;;;2.93;2.73;;;;;;;20.71;73.75;99233.66;4975133;28;20301;-65
2022/10/02 05:17:13;;;;;;;2.70;2.50;;;;;;;20.93;72.74;99236.94;4975746;28;20246;-65
2022/10/02 05:19:59;;;;;;;2.93;2.70;;;;;;;21.10;72.13;99240.19;4975499;28;20307;-66
2022/10/02 05:22:45;;;;;;;2.73;2.43;;;;;;;21.22;70.89;99254.22;4974671;28;20251;-65
2022/10/02 05:25:28;;;;;;;2.57;2.37;;;;;;;21.21;70.66;99258.03;4975420;28;20547;-65
2022/10/02 05:28:17;;;;;;;2.50;2.40;;;;;;;21.39;69.76;99265.56;4972966;28;20203;-65
2022/10/02 05:30:48;;;;;;;4.07;2.20;;;;;;;21.46;69.43;99268.81;4974555;28;20188;-65
2022/10/02 05:33:46;;;;;;;2.03;1.93;;;;;;;21.76;69.28;99282.31;4974636;28;20273;-66
2022/10/02 05:36:30;;;;;;;2.70;2.50;;;;;;;21.66;68.81;99286.91;4974654;28;20251;-65
2022/10/02 05:39:04;;;;;;;2.37;2.27;;;;;;;21.83;68.01;99301.78;4974557;28;20250;-65
2022/10/02 05:41:40;;;;;;;3.10;2.80;;;;;;;22.00;67.52;99310.41;4974452;28;20192;-65
2022/10/02 05:44:14;;;;;;;2.83;2.60;;;;;;;22.12;67.42;99318.22;4974608;28;20191;-65
2022/10/02 05:46:45;;;;;;;2.40;2.30;;;;;;;22.00;66.82;99315.81;4974488;28;20266;-65
2022/10/02 05:49:17;;;;;;;2.53;2.33;;;;;;;22.18;66.12;99317.94;4975069;28;20188;-66
2022/10/02 05:51:52;;;;;;;3.67;2.20;;;;;;;22.27;66.08;99321.69;4974054;28;20183;-65
2022/10/02 05:54:30;;;;;;;2.50;2.40;;;;;;;22.39;65.27;99330.31;4974321;28;20191;-63
2022/10/02 05:57:04;;;;;;;4.57;2.20;;;;;;;22.47;64.74;99337.91;4974493;28;20195;-63
2022/10/02 05:59:37;;;;;;;2.57;1.97;;;;;;;22.75;64.18;99350.75;4975836;28;20202;-65
2022/10/02 06:02:15;;;;;;;2.30;2.10;;;;;;;22.82;63.15;99334.22;4977639;28;20215;-65
2022/10/02 06:04:51;;;;;;;4.63;2.37;;;;;;;22.83;63.23;99331.22;4992922;28;20187;-64
2022/10/02 06:07:21;;;;;;;4.97;2.10;;;;;;;22.61;63.15;99343.50;4988656;28;20261;-65
2022/10/02 06:09:54;;;;;;;2.00;1.90;;;;;;;22.82;63.32;99328.81;4973705;28;20206;-65
2022/10/02 06:12:29;;;;;;;3.13;2.00;;;;;;;23.07;61.62;99334.88;4974355;28;20184;-67
2022/10/02 06:15:01;;;;;;;2.23;1.87;;;;;;;23.11;60.59;99337.84;4974437;28;20191;-68
2022/10/02 06:17:33;;;;;;;7.80;2.30;;;;;;;23.08;60.69;99350.03;4973758;28;20192;-68
2022/10/02 06:20:05;;;;;;;2.97;1.73;;;;;;;23.49;59.30;99351.41;4974121;28;20246;-69
2022/10/02 06:22:42;;;;;;;2.17;1.97;;;;;;;23.20;59.87;99361.38;4974714;28;20306;-69
2022/10/02 06:25:16;;;;;;;2.40;1.93;;;;;;;23.11;59.82;99348.69;4973826;28;20655;-69
2022/10/02 06:27:48;;;;;;;1.53;1.43;;;;;;;23.05;59.57;99366.06;4973810;28;20182;-67
2022/10/02 06:30:17;;;;;;;2.00;1.63;;;;;;;23.14;58.70;99367.91;4973746;28;20192;-68
2022/10/02 06:32:51;;;;;;;1.70;1.60;;;;;;;23.28;58.10;99377.03;4977852;28;20199;-66
2022/10/02 06:35:38;;;;;;;1.80;1.70;;;;;;;23.48;58.27;99376.91;4993495;28;20254;-68
2022/10/02 06:38:21;;;;;;;4.27;1.93;;;;;;;23.50;58.43;99374.75;4954506;28;20632;-67
2022/10/02 06:40:53;;;;;;;1.50;1.50;;;;;;;23.78;57.46;99371.25;4953821;28;20193;-68
2022/10/02 06:43:47;;;;;;;3.23;1.77;;;;;;;23.75;56.81;99362.84;4953798;28;20225;-68
2022/10/02 06:46:24;;;;;;;2.00;1.90;;;;;;;23.74;56.77;99369.38;4954810;28;20197;-67
2022/10/02 06:48:57;;;;;;;2.13;1.60;;;;;;;23.96;56.16;99383.31;4954305;28;20186;-68
2022/10/02 06:51:37;;;;;;;3.63;1.77;;;;;;;24.01;55.66;99389.50;4954086;28;20653;-67
2022/10/02 06:54:23;;;;;;;1.70;1.60;;;;;;;24.03;54.86;99387.34;4954231;28;20240;-68
2022/10/02 06:57:11;;;;;;;2.73;1.63;;;;;;;24.08;53.79;99398.16;4953778;28;20197;-66
2022/10/02 06:59:54;;;;;;;1.67;1.63;;;;;;;24.12;54.61;99404.63;4954430;28;20235;-67
2022/10/02 07:02:43;;;;;;;1.90;1.80;;;;;;;24.09;54.52;99421.47;4954601;28;20214;-68
2022/10/02 07:05:47;;;;;;;1.83;1.53;;;;;;;24.32;53.87;99430.75;4953492;28;20680;-68
2022/10/02 07:08:26;;;;;;;1.87;1.77;;;;;;;24.13;53.66;99438.81;4950850;28;20670;-68
2022/10/02 07:11:02;;;;;;;2.83;1.27;;;;;;;24.43;51.96;99438.50;4992519;28;20192;-71
2022/10/02 07:13:42;;;;;;;1.70;1.57;;;;;;;24.70;51.65;99446.94;4992887;28;20193;-73
2022/10/02 07:16:45;;;;;;;1.53;1.40;;;;;;;24.58;49.98;99449.22;4992894;28;20207;-69
2022/10/02 07:19:37;;;;;;;2.20;1.50;;;;;;;24.74;49.46;99439.84;4961416;28;20210;-70
2022/10/02 07:22:21;;;;;;;2.33;1.33;;;;;;;24.89;48.64;99447.81;4992456;28;20237;-71
2022/10/02 07:25:06;;;;;;;1.40;1.30;;;;;;;24.78;47.90;99462.63;4993153;28;20257;-71
2022/10/02 07:27:41;;;;;;;3.63;1.73;;;;;;;24.68;47.83;99435.56;4993402;28;20205;-71
2022/10/02 07:30:10;;;;;;;1.83;1.60;;;;;;;24.56;48.56;99459.59;4990152;28;20189;-72
2022/10/02 07:32:48;;;;;;;4.23;2.33;;;;;;;24.81;47.93;99463.94;4964056;28;20211;-71
2022/10/02 07:35:40;;;;;;;3.47;1.60;;;;;;;24.77;47.94;99469.16;4960640;28;20571;-72
2022/10/02 07:38:41;;;;;;;3.77;1.77;;;;;;;24.92;47.74;99465.47;4939518;28;20206;-72
2022/10/02 07:41:20;;;;;;;5.07;1.80;;;;;;;24.76;46.80;99450.44;4953325;28;20204;-72
2022/10/02 07:44:01;;;;;;;2.73;2.00;;;;;;;24.81;46.58;99445.75;4953446;28;20305;-68
2022/10/02 07:46:39;;;;;;;1.93;1.63;;;;;;;24.50;47.07;99444.41;4953415;28;20248;-70
2022/10/02 07:49:22;;;;;;;5.33;1.70;;;;;;;24.61;47.65;99445.97;4969186;28;20243;-71
2022/10/02 07:51:56;;;;;;;3.03;1.60;;;;;;;24.56;47.98;99459.59;4979106;28;20261;-69
2022/10/02 07:54:48;;;;;;;7.77;2.17;;;;;;;24.52;47.15;99463.16;4985955;28;20269;-66
2022/10/02 07:57:35;;;;;;;1.60;1.50;;;;;;;24.57;46.38;99466.63;4965878;28;20625;-65
2022/10/02 08:00:07;;;;;;;3.33;1.83;;;;;;;24.39;46.09;99451.03;4982674;28;20199;-73
2022/10/02 08:02:40;;;;;;;1.73;1.63;;;;;;;24.71;46.21;99474.94;4981780;28;20205;-76
2022/10/02 08:05:17;;;;;;;8.83;2.03;;;;;;;24.95;45.81;99479.25;4983053;28;20210;-71
2022/10/02 08:07:45;;;;;;;5.67;1.80;;;;;;;25.15;45.06;99488.28;4982477;28;20191;-71
2022/10/02 08:10:15;;;;;;;2.13;1.87;;;;;;;25.14;43.73;99492.13;4986153;28;20199;-71
2022/10/02 08:12:50;;;;;;;1.53;1.43;;;;;;;25.33;44.11;99496.50;4985367;28;20198;-72
2022/10/02 08:15:22;;;;;;;1.73;1.63;;;;;;;25.38;43.69;99490.19;4984552;28;21521;-72
2022/10/02 08:17:51;;;;;;;6.03;1.83;;;;;;;25.21;43.32;99500.72;4982996;28;20191;-71
2022/10/02 08:20:26;;;;;;;2.30;1.50;;;;;;;25.11;43.89;99493.47;4983861;28;20203;-72
2022/10/02 08:23:00;;;;;;;5.37;1.90;;;;;;;25.32;43.15;99504.97;4984534;28;20681;-72
2022/10/02 08:25:30;;;;;;;1.60;1.50;;;;;;;25.69;41.72;99499.56;4985895;28;20269;-72
2022/10/02 08:28:02;;;;;;;2.30;1.47;;;;;;;25.26;41.92;99495.19;4986199;28;20242;-72
2022/10/02 08:30:30;;;;;;;1.77;1.50;;;;;;;25.15;41.55;99482.84;4983409;28;20183;-72
2022/10/02 08:32:58;;;;;;;3.33;1.77;;;;;;;25.16;42.32;99500.78;4995448;28;20206;-71
2022/10/02 08:35:36;;;;;;;3.40;1.50;;;;;;;25.02;42.56;99503.38;4995173;28;20686;-71
2022/10/02 08:38:18;;;;;;;4.93;2.20;;;;;;;25.17;41.50;99497.78;4956415;28;20741;-72
2022/10/02 08:41:18;;;;;;;3.17;1.40;;;;;;;25.36;41.58;99484.25;4983869;28;20695;-72
2022/10/02 08:44:23;;;;;;;1.57;1.47;;;;;;;25.63;41.04;99496.09;4990282;28;20210;-72
2022/10/02 08:47:33;;;;;;;3.60;1.60;;;;;;;25.47;41.25;99502.06;4984100;28;20190;-73
2022/10/02 08:50:18;;;;;;;2.17;1.90;;;;;;;25.66;40.85;99489.25;4980325;28;20188;-69
2022/10/02 08:53:23;;;;;;;2.17;1.60;;;;;;;25.97;41.17;99488.53;4973929;28;20266;-69
2022/10/02 08:56:11;;;;;;;1.60;1.50;;;;;;;26.20;40.23;99489.53;4973636;28;20575;-69
2022/10/02 08:59:06;;;;;;;1.80;1.43;;;;;;;26.31;39.53;99483.63;4972958;28;20606;-69
2022/10/02 09:02:26;;;;;;;1.20;1.20;;;;;;;26.63;39.11;99478.19;4974413;28;20715;-69
2022/10/02 09:05:28;;;;;;;2.67;1.70;;;;;;;26.26;38.94;99461.09;4914340;29;20674;-69
2022/10/02 09:08:32;;;;;;;1.47;1.30;;;;;;;25.70;39.26;99479.41;4974778;28;20328;-68
2022/10/02 09:11:36;;;;;;;11.83;1.60;;;;;;;25.48;37.90;99455.47;4973152;28;20606;-69
2022/10/02 09:14:19;;;;;;;1.17;1.17;;;;;;;25.80;38.01;99479.25;4974544;28;20266;-68
2022/10/02 09:17:13;;;;;;;2.37;1.33;;;;;;;25.86;38.25;99457.09;4974780;28;20188;-68
2022/10/02 09:19:44;;;;;;;1.87;1.70;;;;;;;25.81;38.02;99445.50;4974661;28;20187;-69
2022/10/02 09:22:31;;;;;;;2.97;1.30;;;;;;;25.76;38.12;99461.91;4974671;28;20192;-68
2022/10/02 09:25:19;;;;;;;4.10;1.37;;;;;;;25.65;37.97;99463.97;4974158;28;20289;-68
2022/10/02 09:28:33;;;;;;;1.57;1.47;;;;;;;26.10;37.52;99457.03;4974800;28;20254;-67
2022/10/02 09:31:29;;;;;;;1.20;1.20;;;;;;;25.78;38.05;99443.34;4911187;29;20197;-66
2022/10/02 09:34:42;;;;;;;1.60;1.13;;;;;;;26.10;38.46;99435.22;4903057;29;20209;-68
2022/10/02 09:37:44;;;;;;;2.17;1.27;;;;;;;25.92;38.27;99438.78;4973623;28;20195;-67
2022/10/02 09:40:58;;;;;;;2.37;1.20;;;;;;;26.19;37.96;99433.44;4974036;28;20522;-67
2022/10/02 09:44:07;;;;;;;3.10;1.47;;;;;;;25.84;38.76;99426.63;4916321;28;20222;-67
2022/10/02 09:46:54;;;;;;;1.73;1.60;;;;;;;25.96;37.47;99427.03;4928146;28;20199;-68
2022/10/02 09:49:56;;;;;;;2.70;1.40;;;;;;;25.93;37.28;99429.50;4973992;28;20246;-69
2022/10/02 09:52:53;;;;;;;5.70;1.40;;;;;;;25.84;38.62;99414.97;4970119;28;20222;-68
2022/10/02 09:55:52;;;;;;;2.00;1.50;;;;;;;26.39;37.18;99420.28;4991740;28;20647;-69
2022/10/02 09:58:42;;;;;;;2.87;1.33;;;;;;;26.41;36.83;99409.09;4992756;28;20671;-68
2022/10/02 10:01:49;;;;;;;2.10;1.30;;;;;;;26.40;36.39;99413.72;4992107;28;20187;-68
2022/10/02 10:04:38;;;;;;;3.03;1.27;;;;;;;26.11;36.34;99420.50;4993404;28;20210;-68
2022/10/02 10:07:45;;;;;;;3.20;1.30;;;;;;;26.03;36.58;99413.03;4954299;28;20215;-65
2022/10/02 10:10:52;;;;;;;1.77;1.40;;;;;;;25.97;35.96;99419.66;4954487;28;20711;-66
2022/10/02 10:13:50;;;;;;;1.23;1.23;;;;;;;26.16;36.83;99396.72;4945686;28;20267;-65
2022/10/02 10:16:55;;;;;;;4.10;1.20;;;;;;;26.52;35.67;99413.22;4953133;28;20188;-65
2022/10/02 10:20:03;;;;;;;5.10;1.70;;;;;;;26.31;35.51;99428.31;4947255;28;20196;-65
2022/10/02 10:22:50;;;;;;;2.20;1.40;;;;;;;26.44;35.71;99420.19;4951415;28;20267;-67
2022/10/02 10:26:03;;;;;;;1.23;1.20;;;;;;;26.47;34.51;99427.75;4953598;28;20633;-65
2022/10/02 10:28:55;;;;;;;3.07;1.33;;;;;;;26.22;34.76;99432.84;4932434;29;20209;-66
2022/10/02 10:32:04;;;;;;;4.13;1.60;;;;;;;26.18;35.00;99437.28;4953862;28;20283;-65
2022/10/02 10:35:07;;;;;;;2.47;1.00;;;;;;;26.45;34.55;99423.72;4948293;28;20278;-67
2022/10/02 10:40:42;;;;;;;2.63;1.17;;;;;;;26.72;34.26;99442.84;4973071;28;20233;-64
2022/10/02 10:43:37;;;;;;;2.17;1.03;;;;;;;26.46;34.04;99453.38;4972793;28;20187;-65
2022/10/02 10:46:33;;;;;;;2.27;1.00;;;;;;;26.25;34.55;99449.38;4972491;28;20280;-65
2022/10/02 10:49:15;;;;;;;5.13;1.40;;;;;;;26.24;34.13;99457.84;4959958;28;20258;-67
2022/10/02 10:51:48;;;;;;;2.60;1.37;;;;;;;26.75;34.04;99464.03;4971008;28;20647;-66
2022/10/02 10:54:48;;;;;;;4.20;1.07;;;;;;;26.90;32.65;99447.41;4972644;28;20722;-65
2022/10/02 10:57:26;;;;;;;0.80;0.80;;;;;;;26.86;32.34;99443.66;4973092;28;20200;-67
2022/10/02 11:00:14;;;;;;;3.40;1.30;;;;;;;26.62;32.95;99452.00;4973141;28;20254;-67
2022/10/02 11:03:23;;;;;;;1.40;1.10;;;;;;;26.69;32.83;99449.69;4973334;28;20184;-67
2022/10/02 11:06:20;;;;;;;1.10;1.10;;;;;;;26.75;32.41;99453.13;4973007;28;20195;-64
2022/10/02 11:09:22;;;;;;;1.70;0.80;;;;;;;26.68;32.65;99442.63;4981753;28;20191;-64
2022/10/02 11:12:05;;;;;;;0.83;0.80;;;;;;;26.78;32.15;99438.91;4984703;28;20241;-64
2022/10/02 11:14:44;;;;;;;1.03;0.93;;;;;;;27.11;32.29;99443.13;4991149;28;20252;-64
2022/10/02 11:17:35;;;;;;;1.13;1.00;;;;;;;26.95;32.49;99452.75;4970177;28;20187;-65
2022/10/02 11:20:19;;;;;;;0.83;0.80;;;;;;;26.90;31.87;99444.66;4964559;28;20231;-65
2022/10/02 11:23:15;;;;;;;6.53;0.90;;;;;;;26.98;30.40;99463.84;4971738;28;20270;-64
2022/10/02 11:26:01;;;;;;;3.47;1.03;;;;;;;26.62;30.55;99453.94;4960874;28;20246;-64
2022/10/02 11:28:59;;;;;;;2.43;0.80;;;;;;;26.15;31.36;99465.91;4974765;28;20191;-66
2022/10/02 11:31:48;;;;;;;2.60;0.80;;;;;;;26.32;30.76;99459.91;4977210;28;20183;-64
2022/10/02 11:34:47;;;;;;;9.10;1.10;;;;;;;26.33;30.16;99448.69;4975755;28;20246;-67
2022/10/02 11:37:25;;;;;;;1.17;0.70;;;;;;;26.38;30.89;99447.81;4976265;28;20663;-66
2022/10/02 11:40:12;;;;;;;2.27;0.90;;;;;;;26.26;30.68;99448.31;4975455;28;20191;-67
2022/10/02 11:43:15;;;;;;;4.03;1.00;;;;;;;26.19;30.27;99442.44;4976010;28;20187;-67
2022/10/02 11:46:26;;;;;;;11.00;1.53;;;;;;;26.12;30.30;99433.00;4982720;28;20191;-68
2022/10/02 11:49:12;;;;;;;4.20;0.87;;;;;;;26.08;30.93;99429.25;4980820;28;20272;-69
2022/10/02 11:51:57;;;;;;;6.03;0.70;;;;;;;25.99;30.83;99436.50;4984763;28;20228;-67
2022/10/02 11:54:43;;;;;;;2.30;0.60;;;;;;;26.13;30.79;99440.88;4975655;28;20191;-67
2022/10/02 11:57:33;;;;;;;3.23;0.73;;;;;;;26.08;30.89;99434.72;4976189;28;20188;-67
2022/10/02 12:00:34;;;;;;;12.60;1.73;;;;;;;26.16;30.78;99434.03;4975844;28;20188;-67
2022/10/02 12:03:11;;;;;;;0.70;0.70;;;;;;;26.04;30.59;99428.28;4975619;28;20198;-71
2022/10/02 12:05:54;;;;;;;2.33;0.70;;;;;;;25.85;31.59;99411.13;4975295;28;20210;-68
2022/10/02 12:08:34;;;;;;;0.93;0.77;;;;;;;25.83;30.41;99421.50;4975801;28;20213;-68
2022/10/02 12:11:10;;;;;;;1.67;0.90;;;;;;;25.89;30.50;99423.03;4974937;28;20608;-66
2022/10/02 12:14:07;;;;;;;1.73;0.63;;;;;;;25.90;29.92;99424.66;4975508;28;20621;-68
2022/10/02 12:17:01;;;;;;;1.50;0.77;;;;;;;25.74;30.31;99413.22;4974316;28;20327;-69
2022/10/02 12:26:57;;;;;;;1.60;0.80;;;;;;;25.89;30.59;99423.03;4975876;28;20191;-68
2022/10/02 12:28:28;;;;;;;0.70;0.70;;;;;;;25.42;31.42;99415.06;4975452;28;20178;-68
2022/10/02 12:31:05;;;;;;;3.53;0.87;;;;;;;25.51;31.28;99410.59;4975150;28;20191;-67
2022/10/02 12:33:43;;;;;;;6.70;0.90;;;;;;;25.47;30.55;99417.72;4974863;28;20262;-71
2022/10/02 12:36:32;;;;;;;0.50;0.50;;;;;;;25.55;30.48;99411.63;4975663;28;20559;-69
2022/10/02 12:39:07;;;;;;;0.70;0.60;;;;;;;25.68;30.82;99417.09;4974661;28;20270;-68
2022/10/02 12:42:06;;;;;;;0.50;0.50;;;;;;;25.83;30.77;99424.22;4976080;28;20195;-67
2022/10/02 12:44:57;;;;;;;2.53;0.60;;;;;;;25.76;30.92;99419.16;4975608;28;20281;-67